Time,TemperatureF,DewpointF,PressureIn,WindDirection,WindDirectionDegrees,WindSpeedMPH,WindSpeedGustMPH,Humidity,HourlyPrecipIn,Conditions,Clouds,dailyrainin,SoftwareType,DateUTC
2013-09-15 00:01:00,59.0,56.1,30.12,South,170,0.0,0.0,90,0.00,CLR,,0.00,WeatherDisplay:10.37,2013-09-15 04:01:00,
2013-09-15 00:02:00,59.0,56.1,30.12,South,170,0.0,0.0,90,0.00,CLR,,0.00,WeatherDisplay:10.37,2013-09-15 04:02:00,
2013-09-15 00:07:00,59.0,56.1,30.12,South,169,0.0,0.0,90,0.00,CLR,,0.00,WeatherDisplay:10.37,2013-09-15 04:07:00,
2013-09-15 00:12:00,59.0,56.1,30.12,South,169,0.0,0.0,90,0.00,CLR,,0.00,WeatherDisplay:10.37,2013-09-15 04:12:00,
2013-09-15 00:17:00,59.0,56.4,30.12,South,169,0.0,0.0,91,0.00,CLR,,0.00,WeatherDisplay:10.37,2013-09-15 04:17:00,
2013-09-15 00:22:00,59.0,56.4,30.12,South,169,0.0,0.0,91,0.00,CLR,,0.00,WeatherDisplay:10.37,2013-09-15 04:22:00,
2013-09-15 00:27:00,59.0,56.4,30.13,South,169,0.0,0.0,91,0.00,CLR,,0.00,WeatherDisplay:10.37,2013-09-15 04:27:00,
2013-09-15 00:32:00,59.0,56.4,30.13,South,170,0.0,0.0,91,0.00,CLR,,0.00,WeatherDisplay:10.37,2013-09-15 04:32:00,
2013-09-15 00:37:00,59.0,56.4,30.13,South,170,0.0,0.0,91,0.00,CLR,,0.00,WeatherDisplay:10.37,2013-09-15 04:37:00,
2013-09-15 00:42:00,59.0,56.4,30.13,South,170,0.0,0.0,91,0.00,CLR,,0.00,WeatherDisplay:10.37,2013-09-15 04:42:00,
2013-09-15 00:47:00,59.0,56.1,30.13,South,170,0.0,0.0,90,0.00,CLR,,0.00,WeatherDisplay:10.37,2013-09-15 04:47:00,
2013-09-15 00:52:00,59.0,56.4,30.14,South,170,0.0,0.0,91,0.00,CLR,,0.00,WeatherDisplay:10.37,2013-09-15 04:52:00,
2013-09-15 00:57:00,59.0,56.4,30.13,South,169,0.0,0.0,91,0.00,CLR,,0.00,WeatherDisplay:10.37,2013-09-15 04:57:00,
2013-09-15 01:02:00,59.0,56.4,30.14,South,170,0.0,0.0,91,0.00,CLR,,0.00,WeatherDisplay:10.37,2013-09-15 05:02:00,
2013-09-15 01:07:00,59.0,56.4,30.14,South,170,0.0,0.0,91,0.00,CLR,,0.00,WeatherDisplay:10.37,2013-09-15 05:07:00,
2013-09-15 01:12:00,59.0,56.4,30.14,South,169,0.0,0.0,91,0.00,CLR,,0.00,WeatherDisplay:10.37,2013-09-15 05:12:00,
2013-09-15 01:17:00,59.0,56.4,30.14,South,169,0.0,0.0,91,0.00,CLR,,0.00,WeatherDisplay:10.37,2013-09-15 05:17:00,
2013-09-15 01:22:00,59.0,56.4,30.14,South,170,0.0,0.0,91,0.00,CLR,,0.00,WeatherDisplay:10.37,2013-09-15 05:22:00,
2013-09-15 01:27:00,59.0,56.4,30.14,South,169,0.0,0.0,91,0.00,CLR,,0.00,WeatherDisplay:10.37,2013-09-15 05:27:00,
2013-09-15 01:32:00,58.9,56.0,30.14,South,169,0.0,0.0,90,0.00,CLR,,0.00,WeatherDisplay:10.37,2013-09-15 05:32:00,
2013-09-15 01:37:00,58.8,56.2,30.14,South,170,0.0,0.0,91,0.00,CLR,,0.00,WeatherDisplay:10.37,2013-09-15 05:37:00,
2013-09-15 01:42:00,58.8,56.2,30.15,South,170,0.0,0.0,91,0.00,CLR,,0.00,WeatherDisplay:10.37,2013-09-15 05:42:00,
2013-09-15 01:47:00,58.7,56.1,30.15,South,170,0.0,0.0,91,0.00,CLR,,0.00,WeatherDisplay:10.37,2013-09-15 05:47:00,
2013-09-15 01:52:00,58.6,56.0,30.15,South,169,0.0,0.0,91,0.00,CLR,,0.00,WeatherDisplay:10.37,2013-09-15 05:52:00,
2013-09-15 01:57:00,58.5,55.9,30.15,South,169,0.0,0.0,91,0.00,CLR,,0.00,WeatherDisplay:10.37,2013-09-15 05:57:00,
2013-09-15 02:02:00,58.4,55.8,30.15,South,170,0.0,0.0,91,0.00,CLR,,0.00,WeatherDisplay:10.37,2013-09-15 06:02:00,
2013-09-15 02:07:00,58.2,55.6,30.15,South,170,0.0,0.0,91,0.00,CLR,,0.00,WeatherDisplay:10.37,2013-09-15 06:07:00,
2013-09-15 02:12:00,58.0,55.1,30.15,South,169,0.0,0.0,90,0.00,CLR,,0.00,WeatherDisplay:10.37,2013-09-15 06:12:00,
2013-09-15 02:17:00,57.9,55.3,30.15,South,170,0.0,0.0,91,0.00,CLR,,0.00,WeatherDisplay:10.37,2013-09-15 06:17:00,
2013-09-15 02:22:00,57.7,54.8,30.15,South,170,0.0,0.0,90,0.00,CLR,,0.00,WeatherDisplay:10.37,2013-09-15 06:22:00,
2013-09-15 02:27:00,57.6,55.0,30.15,South,169,0.0,0.0,91,0.00,CLR,,0.00,WeatherDisplay:10.37,2013-09-15 06:27:00,
2013-09-15 02:32:00,57.4,54.8,30.15,South,170,0.0,0.0,91,0.00,CLR,,0.00,WeatherDisplay:10.37,2013-09-15 06:32:00,
2013-09-15 02:37:00,57.3,55.0,30.15,South,169,0.0,0.0,92,0.00,CLR,,0.00,WeatherDisplay:10.37,2013-09-15 06:37:00,
2013-09-15 02:42:00,57.2,54.6,30.15,South,170,0.0,0.0,91,0.00,CLR,,0.00,WeatherDisplay:10.37,2013-09-15 06:42:00,
2013-09-15 02:47:00,57.1,54.5,30.15,South,170,0.0,0.0,91,0.00,CLR,,0.00,WeatherDisplay:10.37,2013-09-15 06:47:00,
2013-09-15 02:52:00,57.0,54.4,30.15,South,169,0.0,0.0,91,0.00,CLR,,0.00,WeatherDisplay:10.37,2013-09-15 06:52:00,
2013-09-15 02:57:00,56.8,54.2,30.15,South,170,0.0,0.0,91,0.00,CLR,,0.00,WeatherDisplay:10.37,2013-09-15 06:57:00,
2013-09-15 03:02:00,56.8,54.5,30.15,South,170,0.0,0.0,92,0.00,CLR,,0.00,WeatherDisplay:10.37,2013-09-15 07:02:00,
2013-09-15 03:07:00,56.7,54.4,30.15,South,169,0.0,0.0,92,0.00,CLR,,0.00,WeatherDisplay:10.37,2013-09-15 07:07:00,
2013-09-15 03:12:00,56.5,53.9,30.15,South,170,0.0,0.0,91,0.00,CLR,,0.00,WeatherDisplay:10.37,2013-09-15 07:12:00,
2013-09-15 03:17:00,56.4,53.8,30.15,South,170,0.0,0.0,91,0.00,CLR,,0.00,WeatherDisplay:10.37,2013-09-15 07:17:00,
2013-09-15 03:22:00,56.2,53.6,30.15,South,170,0.0,0.0,91,0.00,CLR,,0.00,WeatherDisplay:10.37,2013-09-15 07:22:00,
2013-09-15 03:27:00,56.0,53.4,30.15,South,170,0.0,0.0,91,0.00,CLR,,0.00,WeatherDisplay:10.37,2013-09-15 07:27:00,
2013-09-15 03:32:00,55.8,52.9,30.15,South,170,0.0,0.0,90,0.00,CLR,,0.00,WeatherDisplay:10.37,2013-09-15 07:32:00,
2013-09-15 03:37:00,55.6,52.7,30.15,South,170,0.0,0.0,90,0.00,CLR,,0.00,WeatherDisplay:10.37,2013-09-15 07:37:00,
2013-09-15 03:42:00,55.4,52.2,30.15,South,169,0.0,0.0,89,0.00,CLR,,0.00,WeatherDisplay:10.37,2013-09-15 07:42:00,
2013-09-15 03:47:00,55.2,52.3,30.15,South,170,0.0,0.0,90,0.00,CLR,,0.00,WeatherDisplay:10.37,2013-09-15 07:47:00,
2013-09-15 03:52:00,55.1,52.5,30.15,South,170,0.0,0.0,91,0.00,CLR,,0.00,WeatherDisplay:10.37,2013-09-15 07:52:00,
2013-09-15 03:57:00,55.0,52.7,30.16,South,170,0.0,0.0,92,0.00,CLR,,0.00,WeatherDisplay:10.37,2013-09-15 07:57:00,
2013-09-15 04:02:00,54.9,52.6,30.16,South,170,0.0,0.0,92,0.00,CLR,,0.00,WeatherDisplay:10.37,2013-09-15 08:02:00,
2013-09-15 06:56:00,55.1,53.7,30.20,NNE,24,0.0,0.0,95,0.00,CLR,,0.00,WeatherDisplay:10.37,2013-09-15 10:56:00,
2013-09-15 07:01:00,55.2,53.8,30.20,NNE,24,0.0,0.0,95,0.00,CLR,,0.00,WeatherDisplay:10.37,2013-09-15 11:01:00,
2013-09-15 07:06:00,55.3,53.9,30.20,NNE,24,0.0,0.0,95,0.00,CLR,,0.00,WeatherDisplay:10.37,2013-09-15 11:06:00,
2013-09-15 07:11:00,55.3,53.9,30.20,NNE,24,0.0,0.0,95,0.00,CLR,,0.00,WeatherDisplay:10.37,2013-09-15 11:11:00,
2013-09-15 07:16:00,55.4,53.7,30.20,NNE,24,0.0,0.0,94,0.00,CLR,,0.00,WeatherDisplay:10.37,2013-09-15 11:16:00,
2013-09-15 07:21:00,55.4,53.7,30.20,NNE,24,0.0,0.0,94,0.00,CLR,,0.00,WeatherDisplay:10.37,2013-09-15 11:21:00,
2013-09-15 07:26:00,55.5,53.8,30.20,NNE,24,0.0,0.0,94,0.00,CLR,,0.00,WeatherDisplay:10.37,2013-09-15 11:26:00,
2013-09-15 07:31:00,55.5,53.8,30.20,NNE,24,0.0,0.0,94,0.00,CLR,,0.00,WeatherDisplay:10.37,2013-09-15 11:31:00,
2013-09-15 07:36:00,55.7,54.0,30.20,NNE,24,0.0,0.0,94,0.00,CLR,,0.00,WeatherDisplay:10.37,2013-09-15 11:36:00,
2013-09-15 07:41:00,55.7,54.0,30.21,NNE,24,0.0,0.0,94,0.00,CLR,,0.00,WeatherDisplay:10.37,2013-09-15 11:41:00,
2013-09-15 07:46:00,55.8,54.1,30.21,NNE,24,0.0,0.0,94,0.00,CLR,,0.00,WeatherDisplay:10.37,2013-09-15 11:46:00,
2013-09-15 07:51:00,55.8,54.1,30.21,NNE,24,0.0,0.0,94,0.00,CLR,,0.00,WeatherDisplay:10.37,2013-09-15 11:51:00,
2013-09-15 07:56:00,55.9,54.2,30.21,NNE,24,0.0,0.0,94,0.00,CLR,,0.00,WeatherDisplay:10.37,2013-09-15 11:56:00,
2013-09-15 08:01:00,56.0,54.3,30.22,NNE,24,0.0,0.0,94,0.00,CLR,,0.00,WeatherDisplay:10.37,2013-09-15 12:01:00,
2013-09-15 08:06:00,56.2,54.5,30.21,NNE,28,0.0,0.0,94,0.00,CLR,,0.00,WeatherDisplay:10.37,2013-09-15 12:06:00,
2013-09-15 08:11:00,56.4,54.4,30.21,NNE,28,0.0,0.0,93,0.00,CLR,,0.00,WeatherDisplay:10.37,2013-09-15 12:11:00,
2013-09-15 08:16:00,56.8,55.1,30.21,NNE,28,0.0,0.0,94,0.00,CLR,,0.00,WeatherDisplay:10.37,2013-09-15 12:16:00,
2013-09-15 08:21:00,57.3,55.3,30.21,NNE,30,2.0,2.0,93,0.00,CLR,,0.00,WeatherDisplay:10.37,2013-09-15 12:21:00,
2013-09-15 08:26:00,57.7,55.7,30.22,NNE,30,0.0,0.0,93,0.00,CLR,,0.00,WeatherDisplay:10.37,2013-09-15 12:26:00,
2013-09-15 08:31:00,58.1,55.8,30.21,NNE,30,0.0,0.0,92,0.00,CLR,,0.00,WeatherDisplay:10.37,2013-09-15 12:31:00,
2013-09-15 08:36:00,58.4,56.1,30.22,NNE,30,0.0,0.0,92,0.00,CLR,,0.00,WeatherDisplay:10.37,2013-09-15 12:36:00,
2013-09-15 08:41:00,58.9,56.6,30.22,NNE,30,1.2,0.0,92,0.00,CLR,,0.00,WeatherDisplay:10.37,2013-09-15 12:41:00,
2013-09-15 08:46:00,59.0,56.1,30.22,NNE,32,3.5,3.5,90,0.00,CLR,,0.00,WeatherDisplay:10.37,2013-09-15 12:46:00,
2013-09-15 08:51:00,59.0,56.1,30.22,NNE,32,0.0,0.0,90,0.00,CLR,,0.00,WeatherDisplay:10.37,2013-09-15 12:51:00,
2013-09-15 08:56:00,59.0,56.1,30.22,NNE,21,0.0,0.0,90,0.00,CLR,,0.00,WeatherDisplay:10.37,2013-09-15 12:56:00,
2013-09-15 09:01:00,59.3,56.4,30.22,NNE,21,3.5,3.5,90,0.00,CLR,,0.00,WeatherDisplay:10.37,2013-09-15 13:01:00,
2013-09-15 09:06:00,59.7,56.5,30.22,NNE,22,0.0,0.0,89,0.00,CLR,,0.00,WeatherDisplay:10.37,2013-09-15 13:06:00,
2013-09-15 09:11:00,60.1,56.8,30.22,NNE,22,1.2,0.0,89,0.00,CLR,,0.00,WeatherDisplay:10.37,2013-09-15 13:11:00,
2013-09-15 09:16:00,60.6,56.7,30.22,North,355,3.5,3.5,87,0.00,CLR,,0.00,WeatherDisplay:10.37,2013-09-15 13:16:00,
2013-09-15 09:21:00,61.1,56.9,30.22,NNE,24,0.0,0.0,86,0.00,CLR,,0.00,WeatherDisplay:10.37,2013-09-15 13:21:00,
2013-09-15 09:26:00,61.4,56.8,30.22,NNE,19,3.5,3.5,85,0.00,CLR,,0.00,WeatherDisplay:10.37,2013-09-15 13:26:00,
2013-09-15 09:31:00,61.7,57.1,30.22,NNE,19,0.0,0.0,85,0.00,CLR,,0.00,WeatherDisplay:10.37,2013-09-15 13:31:00,
2013-09-15 09:36:00,62.3,57.7,30.22,NNE,22,0.0,0.0,85,0.00,CLR,,0.00,WeatherDisplay:10.37,2013-09-15 13:36:00,
2013-09-15 09:41:00,62.7,57.5,30.22,NE,40,4.6,4.6,83,0.00,CLR,,0.00,WeatherDisplay:10.37,2013-09-15 13:41:00,
2013-09-15 09:46:00,63.1,57.5,30.23,NNE,29,3.5,3.5,82,0.00,CLR,,0.00,WeatherDisplay:10.37,2013-09-15 13:46:00,
2013-09-15 09:51:00,63.5,57.9,30.22,NE,41,0.0,0.0,82,0.00,CLR,,0.00,WeatherDisplay:10.37,2013-09-15 13:51:00,
2013-09-15 09:56:00,63.9,58.0,30.23,NE,48,0.0,0.0,81,0.00,CLR,,0.00,WeatherDisplay:10.37,2013-09-15 13:56:00,
2013-09-15 10:01:00,64.5,58.5,30.23,NE,50,0.0,0.0,81,0.00,CLR,,0.00,WeatherDisplay:10.37,2013-09-15 14:01:00,
2013-09-15 10:06:00,64.9,58.2,30.23,ENE,69,3.5,3.5,79,0.00,CLR,,0.00,WeatherDisplay:10.37,2013-09-15 14:06:00,
2013-09-15 10:11:00,65.2,58.2,30.23,ENE,69,1.2,1.4,78,0.00,CLR,,0.00,WeatherDisplay:10.37,2013-09-15 14:11:00,
2013-09-15 10:16:00,65.5,59.2,30.23,East,91,1.2,1.3,80,0.00,CLR,,0.00,WeatherDisplay:10.37,2013-09-15 14:16:00,
2013-09-15 10:21:00,66.2,60.2,30.23,West,273,0.0,0.0,81,0.00,CLR,,0.00,WeatherDisplay:10.37,2013-09-15 14:21:00,
2013-09-15 10:26:00,66.8,59.4,30.23,NE,48,3.0,3.0,77,0.00,CLR,,0.00,WeatherDisplay:10.37,2013-09-15 14:26:00,
2013-09-15 10:31:00,67.3,60.2,30.23,NE,41,0.0,0.0,78,0.00,CLR,,0.00,WeatherDisplay:10.37,2013-09-15 14:31:00,
2013-09-15 10:36:00,67.7,59.9,30.23,NE,42,0.0,0.0,76,0.00,CLR,,0.00,WeatherDisplay:10.37,2013-09-15 14:36:00,
2013-09-15 10:41:00,68.1,60.2,30.23,NE,42,0.0,0.0,76,0.00,CLR,,0.00,WeatherDisplay:10.37,2013-09-15 14:41:00,
2013-09-15 10:46:00,68.3,59.7,30.23,East,86,3.5,3.5,74,0.00,CLR,,0.00,WeatherDisplay:10.37,2013-09-15 14:46:00,
2013-09-15 10:51:00,68.6,61.5,30.23,WSW,251,0.0,0.0,78,0.00,CLR,,0.00,WeatherDisplay:10.37,2013-09-15 14:51:00,
2013-09-15 10:56:00,68.9,61.4,30.23,WSW,252,0.0,0.1,77,0.00,CLR,,0.00,WeatherDisplay:10.37,2013-09-15 14:56:00,
2013-09-15 11:02:00,69.3,60.7,30.23,East,82,3.5,3.5,74,0.00,CLR,,0.00,WeatherDisplay:10.37,2013-09-15 15:02:00,
2013-09-15 11:07:00,69.4,60.8,30.23,SE,141,3.5,3.5,74,0.00,CLR,,0.00,WeatherDisplay:10.37,2013-09-15 15:07:00,
2013-09-15 11:12:00,69.6,61.3,30.23,ENE,69,3.5,3.5,75,0.00,CLR,,0.00,WeatherDisplay:10.37,2013-09-15 15:12:00,
2013-09-15 11:17:00,69.5,62.0,30.23,East,87,0.0,0.0,77,0.00,CLR,,0.00,WeatherDisplay:10.37,2013-09-15 15:17:00,
2013-09-15 11:22:00,69.8,61.5,30.23,East,96,1.2,0.0,75,0.00,CLR,,0.00,WeatherDisplay:10.37,2013-09-15 15:22:00,
2013-09-15 11:27:00,69.8,61.1,30.23,NE,53,3.5,3.5,74,0.00,CLR,,0.00,WeatherDisplay:10.37,2013-09-15 15:27:00,
2013-09-15 11:32:00,70.0,61.7,30.23,SE,128,0.0,0.0,75,0.00,CLR,,0.00,WeatherDisplay:10.37,2013-09-15 15:32:00,
2013-09-15 11:37:00,70.4,62.1,30.22,East,83,4.0,4.0,75,0.00,CLR,,0.00,WeatherDisplay:10.37,2013-09-15 15:37:00,
2013-09-15 11:42:00,70.6,61.9,30.22,South,191,5.0,5.0,74,0.00,CLR,,0.00,WeatherDisplay:10.37,2013-09-15 15:42:00,
2013-09-15 11:47:00,70.9,62.6,30.23,NNE,32,3.5,3.5,75,0.00,CLR,,0.00,WeatherDisplay:10.37,2013-09-15 15:47:00,
2013-09-15 11:52:00,71.0,63.1,30.23,NE,49,4.0,4.0,76,0.00,CLR,,0.00,WeatherDisplay:10.37,2013-09-15 15:52:00,
2013-09-15 11:57:00,71.2,62.5,30.22,ESE,118,1.2,0.0,74,0.00,CLR,,0.00,WeatherDisplay:10.37,2013-09-15 15:57:00,
2013-09-15 12:02:00,71.6,63.3,30.22,ESE,109,1.2,0.0,75,0.00,CLR,,0.00,WeatherDisplay:10.37,2013-09-15 16:02:00,
2013-09-15 12:07:00,72.1,63.0,30.22,NE,37,4.6,4.6,73,0.00,CLR,,0.00,WeatherDisplay:10.37,2013-09-15 16:07:00,
2013-09-15 12:12:00,72.1,62.6,30.22,NE,36,4.0,4.0,72,0.00,CLR,,0.00,WeatherDisplay:10.37,2013-09-15 16:12:00,
2013-09-15 12:17:00,72.2,63.1,30.22,ESE,107,2.3,2.3,73,0.00,CLR,,0.00,WeatherDisplay:10.37,2013-09-15 16:17:00,
2013-09-15 12:22:00,72.3,62.8,30.22,East,96,0.0,1.0,72,0.00,CLR,,0.00,WeatherDisplay:10.37,2013-09-15 16:22:00,
2013-09-15 12:27:00,72.5,63.0,30.22,East,101,0.0,0.0,72,0.00,CLR,,0.00,WeatherDisplay:10.37,2013-09-15 16:27:00,
2013-09-15 12:32:00,72.4,62.9,30.22,ENE,67,2.3,2.3,72,0.00,CLR,,0.00,WeatherDisplay:10.37,2013-09-15 16:32:00,
2013-09-15 12:37:00,72.3,62.8,30.22,NNE,32,4.6,4.6,72,0.00,CLR,,0.00,WeatherDisplay:10.37,2013-09-15 16:37:00,
2013-09-15 12:42:00,72.1,63.0,30.21,East,82,2.0,2.0,73,0.00,CLR,,0.00,WeatherDisplay:10.37,2013-09-15 16:42:00,
2013-09-15 12:47:00,71.9,63.2,30.21,ENE,60,3.5,3.5,74,0.00,CLR,,0.00,WeatherDisplay:10.37,2013-09-15 16:47:00,
2013-09-15 12:52:00,71.9,62.8,30.21,NE,53,3.5,3.5,73,0.00,CLR,,0.00,WeatherDisplay:10.37,2013-09-15 16:52:00,
2013-09-15 12:57:00,72.0,63.3,30.21,SW,219,1.2,0.0,74,0.00,CLR,,0.00,WeatherDisplay:10.37,2013-09-15 16:57:00,
2013-09-15 13:02:00,72.2,63.1,30.21,East,84,0.0,0.0,73,0.00,CLR,,0.00,WeatherDisplay:10.37,2013-09-15 17:02:00,
2013-09-15 13:07:00,72.1,63.0,30.21,ENE,78,1.2,1.2,73,0.00,CLR,,0.00,WeatherDisplay:10.37,2013-09-15 17:07:00,
2013-09-15 13:12:00,71.9,62.8,30.21,ENE,63,3.5,3.5,73,0.00,CLR,,0.00,WeatherDisplay:10.37,2013-09-15 17:12:00,
2013-09-15 13:17:00,71.8,63.1,30.21,NNE,28,2.3,2.3,74,0.00,CLR,,0.00,WeatherDisplay:10.37,2013-09-15 17:17:00,
2013-09-15 13:22:00,71.9,63.5,30.20,NNE,28,0.0,0.0,75,0.00,CLR,,0.00,WeatherDisplay:10.37,2013-09-15 17:22:00,
2013-09-15 13:27:00,72.2,63.4,30.20,North,5,4.6,4.6,74,0.00,CLR,,0.00,WeatherDisplay:10.37,2013-09-15 17:27:00,
2013-09-15 13:32:00,72.4,63.6,30.20,East,82,0.0,0.0,74,0.00,CLR,,0.00,WeatherDisplay:10.37,2013-09-15 17:32:00,
2013-09-15 13:37:00,72.6,63.8,30.20,East,82,0.0,0.0,74,0.00,CLR,,0.00,WeatherDisplay:10.37,2013-09-15 17:37:00,
2013-09-15 13:42:00,72.7,63.9,30.20,East,83,0.0,0.0,74,0.00,CLR,,0.00,WeatherDisplay:10.37,2013-09-15 17:42:00,
2013-09-15 13:47:00,72.8,64.0,30.20,East,84,0.0,0.0,74,0.00,CLR,,0.00,WeatherDisplay:10.37,2013-09-15 17:47:00,
2013-09-15 13:52:00,72.8,63.6,30.20,SE,136,0.0,0.0,73,0.00,CLR,,0.00,WeatherDisplay:10.37,2013-09-15 17:52:00,
2013-09-15 13:57:00,73.0,63.8,30.19,SE,134,0.0,0.0,73,0.00,CLR,,0.00,WeatherDisplay:10.37,2013-09-15 17:57:00,
2013-09-15 14:02:00,73.3,63.7,30.19,ENE,59,4.6,4.6,72,0.00,CLR,,0.00,WeatherDisplay:10.37,2013-09-15 18:02:00,
2013-09-15 14:07:00,73.7,64.1,30.19,South,180,0.0,0.0,72,0.00,CLR,,0.00,WeatherDisplay:10.37,2013-09-15 18:07:00,
2013-09-15 14:12:00,74.0,64.0,30.19,ENE,65,3.5,3.5,71,0.00,CLR,,0.00,WeatherDisplay:10.37,2013-09-15 18:12:00,
2013-09-15 14:17:00,73.8,63.4,30.19,ENE,65,0.0,0.0,70,0.00,CLR,,0.00,WeatherDisplay:10.37,2013-09-15 18:17:00,
2013-09-15 14:22:00,73.9,63.9,30.18,ENE,66,0.0,0.0,71,0.00,CLR,,0.00,WeatherDisplay:10.37,2013-09-15 18:22:00,
2013-09-15 14:27:00,74.1,64.1,30.18,ENE,66,0.0,0.0,71,0.00,CLR,,0.00,WeatherDisplay:10.37,2013-09-15 18:27:00,
2013-09-15 14:32:00,74.0,64.4,30.18,ENE,61,0.0,0.0,72,0.00,CLR,,0.00,WeatherDisplay:10.37,2013-09-15 18:32:00,
2013-09-15 14:37:00,74.5,65.3,30.17,ESE,103,3.0,3.0,73,0.00,CLR,,0.00,WeatherDisplay:10.37,2013-09-15 18:37:00,
2013-09-15 14:42:00,74.6,63.8,30.17,ENE,75,3.5,3.5,69,0.00,CLR,,0.00,WeatherDisplay:10.37,2013-09-15 18:42:00,
2013-09-15 14:47:00,74.7,64.3,30.17,ENE,65,0.0,0.0,70,0.00,CLR,,0.00,WeatherDisplay:10.37,2013-09-15 18:47:00,
2013-09-15 14:52:00,75.6,65.9,30.17,ESE,110,0.0,0.0,72,0.00,CLR,,0.00,WeatherDisplay:10.37,2013-09-15 18:52:00,
2013-09-15 14:57:00,76.6,65.2,30.17,South,181,3.5,0.0,68,0.00,CLR,,0.00,WeatherDisplay:10.37,2013-09-15 18:57:00,
2013-09-15 15:02:00,76.7,65.3,30.17,South,175,3.5,3.5,68,0.00,CLR,,0.00,WeatherDisplay:10.37,2013-09-15 19:02:00,
2013-09-15 15:07:00,76.4,64.6,30.16,ENE,71,0.0,0.0,67,0.00,CLR,,0.00,WeatherDisplay:10.37,2013-09-15 19:07:00,
2013-09-15 15:12:00,76.3,65.0,30.16,SSE,155,0.0,0.0,68,0.00,CLR,,0.00,WeatherDisplay:10.37,2013-09-15 19:12:00,
2013-09-15 15:17:00,76.3,64.5,30.16,SSW,198,2.3,2.3,67,0.00,CLR,,0.00,WeatherDisplay:10.37,2013-09-15 19:17:00,
2013-09-15 15:18:00,76.2,64.4,30.16,SSW,198,0.0,0.0,67,0.00,CLR,,0.00,WeatherDisplay:10.37,2013-09-15 19:18:00,
2013-09-15 15:23:00,76.4,64.6,30.16,ENE,72,1.0,1.0,67,0.00,CLR,,0.00,WeatherDisplay:10.37,2013-09-15 19:23:00,
2013-09-15 15:28:00,76.3,65.4,30.16,ENE,71,0.0,0.0,69,0.00,CLR,,0.00,WeatherDisplay:10.37,2013-09-15 19:28:00,
2013-09-15 15:33:00,76.2,64.9,30.16,South,179,0.0,0.0,68,0.00,CLR,,0.00,WeatherDisplay:10.37,2013-09-15 19:33:00,
2013-09-15 15:38:00,76.5,64.7,30.15,SW,229,3.0,3.0,67,0.00,CLR,,0.00,WeatherDisplay:10.37,2013-09-15 19:38:00,
2013-09-15 15:43:00,76.8,65.4,30.15,SW,226,3.5,3.5,68,0.00,CLR,,0.00,WeatherDisplay:10.37,2013-09-15 19:43:00,
2013-09-15 15:48:00,77.5,66.5,30.15,SW,226,0.0,0.0,69,0.00,CLR,,0.00,WeatherDisplay:10.37,2013-09-15 19:48:00,
2013-09-15 15:53:00,77.9,65.6,30.14,NE,38,0.0,0.0,66,0.00,CLR,,0.00,WeatherDisplay:10.37,2013-09-15 19:53:00,
2013-09-15 15:58:00,77.8,65.5,30.14,East,80,0.0,0.0,66,0.00,CLR,,0.00,WeatherDisplay:10.37,2013-09-15 19:58:00,
2013-09-15 16:03:00,78.3,66.0,30.14,SSW,196,0.0,0.0,66,0.00,CLR,,0.00,WeatherDisplay:10.37,2013-09-15 20:03:00,
2013-09-15 16:08:00,78.6,65.8,30.14,SE,144,0.0,0.0,65,0.00,CLR,,0.00,WeatherDisplay:10.37,2013-09-15 20:08:00,
2013-09-15 16:13:00,78.5,66.2,30.14,East,94,3.5,3.5,66,0.00,CLR,,0.00,WeatherDisplay:10.37,2013-09-15 20:13:00,
2013-09-15 16:18:00,78.3,65.6,30.14,ESE,121,0.0,0.0,65,0.00,CLR,,0.00,WeatherDisplay:10.37,2013-09-15 20:18:00,
2013-09-15 16:23:00,78.2,66.3,30.14,ESE,108,0.0,0.0,67,0.00,CLR,,0.00,WeatherDisplay:10.37,2013-09-15 20:23:00,
2013-09-15 16:28:00,77.5,64.8,30.14,ESE,108,0.0,0.0,65,0.00,CLR,,0.00,WeatherDisplay:10.37,2013-09-15 20:28:00,
2013-09-15 16:33:00,77.2,65.8,30.14,ESE,115,0.0,0.0,68,0.00,CLR,,0.00,WeatherDisplay:10.37,2013-09-15 20:33:00,
2013-09-15 16:38:00,77.0,64.8,30.13,ESE,115,0.0,0.0,66,0.00,CLR,,0.00,WeatherDisplay:10.37,2013-09-15 20:38:00,
2013-09-15 16:43:00,76.9,65.1,30.13,ESE,115,0.0,0.0,67,0.00,CLR,,0.00,WeatherDisplay:10.37,2013-09-15 20:43:00,
2013-09-15 16:48:00,77.0,64.3,30.13,SE,134,0.0,0.0,65,0.00,CLR,,0.00,WeatherDisplay:10.37,2013-09-15 20:48:00,
2013-09-15 16:53:00,77.4,65.1,30.13,SSE,158,3.5,3.5,66,0.00,CLR,,0.00,WeatherDisplay:10.37,2013-09-15 20:53:00,
2013-09-15 16:58:00,77.7,64.5,30.13,SW,222,3.5,3.5,64,0.00,CLR,,0.00,WeatherDisplay:10.37,2013-09-15 20:58:00,
2013-09-15 17:03:00,77.8,65.1,30.12,SW,222,1.2,1.2,65,0.00,CLR,,0.00,WeatherDisplay:10.37,2013-09-15 21:03:00,
2013-09-15 17:08:00,78.3,65.6,30.12,SW,222,0.0,0.0,65,0.00,CLR,,0.00,WeatherDisplay:10.37,2013-09-15 21:08:00,
2013-09-15 17:13:00,78.6,64.5,30.12,SW,223,0.0,0.0,62,0.00,CLR,,0.00,WeatherDisplay:10.37,2013-09-15 21:13:00,
2013-09-15 17:18:00,78.7,65.5,30.12,SW,223,0.0,0.0,64,0.00,CLR,,0.00,WeatherDisplay:10.37,2013-09-15 21:18:00,
2013-09-15 17:23:00,78.9,65.7,30.12,East,94,0.0,0.0,64,0.00,CLR,,0.00,WeatherDisplay:10.37,2013-09-15 21:23:00,
2013-09-15 17:28:00,78.7,65.5,30.12,ESE,107,0.0,0.0,64,0.00,CLR,,0.00,WeatherDisplay:10.37,2013-09-15 21:28:00,
2013-09-15 17:33:00,78.7,65.9,30.12,SSE,167,3.5,0.0,65,0.00,CLR,,0.00,WeatherDisplay:10.37,2013-09-15 21:33:00,
2013-09-15 17:38:00,78.7,65.5,30.12,SSE,157,0.0,0.0,64,0.00,CLR,,0.00,WeatherDisplay:10.37,2013-09-15 21:38:00,
2013-09-15 17:43:00,78.3,64.7,30.12,SSE,156,0.0,0.0,63,0.00,CLR,,0.00,WeatherDisplay:10.37,2013-09-15 21:43:00,
2013-09-15 17:48:00,78.0,64.8,30.12,East,92,0.0,0.0,64,0.00,CLR,,0.00,WeatherDisplay:10.37,2013-09-15 21:48:00,
2013-09-15 17:53:00,77.9,65.2,30.12,ESE,122,0.0,0.0,65,0.00,CLR,,0.00,WeatherDisplay:10.37,2013-09-15 21:53:00,
2013-09-15 17:58:00,77.9,66.1,30.12,ESE,122,0.0,0.0,67,0.00,CLR,,0.00,WeatherDisplay:10.37,2013-09-15 21:58:00,
2013-09-15 18:03:00,78.0,66.6,30.12,ESE,122,0.0,0.0,68,0.00,CLR,,0.00,WeatherDisplay:10.37,2013-09-15 22:03:00,
2013-09-15 18:08:00,77.8,66.0,30.12,ESE,122,0.0,0.0,67,0.00,CLR,,0.00,WeatherDisplay:10.37,2013-09-15 22:08:00,
2013-09-15 18:13:00,77.6,66.2,30.12,ESE,122,0.0,0.0,68,0.00,CLR,,0.00,WeatherDisplay:10.37,2013-09-15 22:13:00,
2013-09-15 18:18:00,77.4,66.4,30.12,ESE,122,0.0,0.0,69,0.00,CLR,,0.00,WeatherDisplay:10.37,2013-09-15 22:18:00,
2013-09-15 18:23:00,77.2,66.2,30.12,ESE,122,0.0,0.0,69,0.00,CLR,,0.00,WeatherDisplay:10.37,2013-09-15 22:23:00,
2013-09-15 18:28:00,76.9,66.0,30.12,SE,130,0.0,0.0,69,0.00,CLR,,0.00,WeatherDisplay:10.37,2013-09-15 22:28:00,
2013-09-15 18:33:00,76.8,66.3,30.12,SE,130,0.0,0.0,70,0.00,CLR,,0.00,WeatherDisplay:10.37,2013-09-15 22:33:00,
2013-09-15 18:38:00,76.6,66.9,30.12,SE,130,0.0,0.0,72,0.00,CLR,,0.00,WeatherDisplay:10.37,2013-09-15 22:38:00,
2013-09-15 18:43:00,76.3,66.2,30.12,SE,130,0.0,0.0,71,0.00,CLR,,0.00,WeatherDisplay:10.37,2013-09-15 22:43:00,
2013-09-15 18:48:00,76.0,66.3,30.12,SE,130,0.0,0.0,72,0.00,CLR,,0.00,WeatherDisplay:10.37,2013-09-15 22:48:00,
2013-09-15 18:53:00,75.7,66.0,30.12,SE,130,0.0,0.0,72,0.00,CLR,,0.00,WeatherDisplay:10.37,2013-09-15 22:53:00,
2013-09-15 18:58:00,75.4,65.7,30.12,SE,130,0.0,0.0,72,0.00,CLR,,0.00,WeatherDisplay:10.37,2013-09-15 22:58:00,
2013-09-15 19:03:00,75.1,66.2,30.12,East,95,0.0,0.0,74,0.00,CLR,,0.00,WeatherDisplay:10.37,2013-09-15 23:03:00,
2013-09-15 19:08:00,74.7,65.5,30.12,SW,219,0.0,0.0,73,0.00,CLR,,0.00,WeatherDisplay:10.37,2013-09-15 23:08:00,
2013-09-15 19:13:00,74.3,65.1,30.12,ESE,119,0.0,0.0,73,0.00,CLR,,0.00,WeatherDisplay:10.37,2013-09-15 23:13:00,
2013-09-15 19:18:00,74.0,64.8,30.12,NW,313,0.0,0.0,73,0.00,CLR,,0.00,WeatherDisplay:10.37,2013-09-15 23:18:00,
2013-09-15 19:23:00,73.8,65.0,30.12,SW,234,0.0,0.0,74,0.00,CLR,,0.00,WeatherDisplay:10.37,2013-09-15 23:23:00,
2013-09-15 19:28:00,73.4,64.6,30.12,SSW,209,0.0,0.0,74,0.00,CLR,,0.00,WeatherDisplay:10.37,2013-09-15 23:28:00,
2013-09-15 19:33:00,73.1,64.7,30.12,SSW,209,0.0,0.0,75,0.00,CLR,,0.00,WeatherDisplay:10.37,2013-09-15 23:33:00,
2013-09-15 19:38:00,72.8,65.2,30.12,SSW,209,0.0,0.0,77,0.00,CLR,,0.00,WeatherDisplay:10.37,2013-09-15 23:38:00,
2013-09-15 19:43:00,72.4,64.8,30.12,SSW,209,0.0,0.0,77,0.00,CLR,,0.00,WeatherDisplay:10.37,2013-09-15 23:43:00,
2013-09-15 19:48:00,72.1,64.5,30.12,SSW,209,0.0,0.0,77,0.00,CLR,,0.00,WeatherDisplay:10.37,2013-09-15 23:48:00,
2013-09-15 19:53:00,71.7,64.5,30.12,SSW,209,0.0,0.0,78,0.00,CLR,,0.00,WeatherDisplay:10.37,2013-09-15 23:53:00,
2013-09-15 19:58:00,71.3,64.4,30.13,SSW,209,0.0,0.0,79,0.00,CLR,,0.00,WeatherDisplay:10.37,2013-09-15 23:58:00,
2013-09-15 20:03:00,70.9,64.1,30.13,SSW,209,0.0,0.0,79,0.00,CLR,,0.00,WeatherDisplay:10.37,2013-09-16 00:03:00,
2013-09-15 20:08:00,70.6,64.1,30.12,SSW,209,0.0,0.0,80,0.00,CLR,,0.00,WeatherDisplay:10.37,2013-09-16 00:08:00,
2013-09-15 20:13:00,70.3,64.2,30.13,SSW,209,0.0,0.0,81,0.00,CLR,,0.00,WeatherDisplay:10.37,2013-09-16 00:13:00,
2013-09-15 20:18:00,70.1,64.3,30.12,SSW,209,0.0,0.0,82,0.00,CLR,,0.00,WeatherDisplay:10.37,2013-09-16 00:18:00,
2013-09-15 20:23:00,69.8,64.1,30.13,SSW,209,0.0,0.0,82,0.00,CLR,,0.00,WeatherDisplay:10.37,2013-09-16 00:23:00,
2013-09-15 20:28:00,69.5,63.8,30.13,SSW,209,0.0,0.0,82,0.00,CLR,,0.00,WeatherDisplay:10.37,2013-09-16 00:28:00,
2013-09-15 20:33:00,69.3,63.6,30.13,SSW,209,0.0,0.0,82,0.00,CLR,,0.00,WeatherDisplay:10.37,2013-09-16 00:33:00,
2013-09-15 20:38:00,69.1,63.4,30.13,SSW,209,0.0,0.0,82,0.00,CLR,,0.00,WeatherDisplay:10.37,2013-09-16 00:38:00,
2013-09-15 20:43:00,69.1,63.4,30.13,SSW,209,0.0,0.0,82,0.00,CLR,,0.00,WeatherDisplay:10.37,2013-09-16 00:43:00,
2013-09-15 20:48:00,69.1,63.4,30.13,SSW,209,0.0,0.0,82,0.00,CLR,,0.00,WeatherDisplay:10.37,2013-09-16 00:48:00,
2013-09-15 20:53:00,69.0,63.6,30.13,SSW,209,0.0,0.0,83,0.00,CLR,,0.00,WeatherDisplay:10.37,2013-09-16 00:53:00,
2013-09-15 20:58:00,68.9,63.5,30.13,SSW,209,0.0,0.0,83,0.00,CLR,,0.00,WeatherDisplay:10.37,2013-09-16 00:58:00,
2013-09-15 21:03:00,68.7,63.0,30.14,SSW,209,0.0,0.0,82,0.00,CLR,,0.00,WeatherDisplay:10.37,2013-09-16 01:03:00,
2013-09-15 21:08:00,68.7,63.0,30.14,SSW,209,0.0,0.0,82,0.00,CLR,,0.00,WeatherDisplay:10.37,2013-09-16 01:08:00,
2013-09-15 21:13:00,68.6,62.9,30.14,SSW,209,0.0,0.0,82,0.00,CLR,,0.00,WeatherDisplay:10.37,2013-09-16 01:13:00,
2013-09-15 21:18:00,68.6,62.9,30.14,SSW,209,0.0,0.0,82,0.00,CLR,,0.00,WeatherDisplay:10.37,2013-09-16 01:18:00,
2013-09-15 21:23:00,68.6,62.9,30.14,SSW,209,0.0,0.0,82,0.00,CLR,,0.00,WeatherDisplay:10.37,2013-09-16 01:23:00,
2013-09-15 21:28:00,68.6,63.2,30.14,SSW,209,0.0,0.0,83,0.00,CLR,,0.00,WeatherDisplay:10.37,2013-09-16 01:28:00,
2013-09-15 21:33:00,68.5,63.1,30.14,SSW,209,0.0,0.0,83,0.00,CLR,,0.00,WeatherDisplay:10.37,2013-09-16 01:33:00,
2013-09-15 21:38:00,68.3,63.3,30.14,SSW,209,0.0,0.0,84,0.00,CLR,,0.00,WeatherDisplay:10.37,2013-09-16 01:38:00,
2013-09-15 21:43:00,68.0,62.6,30.14,SSW,209,0.0,0.0,83,0.00,CLR,,0.00,WeatherDisplay:10.37,2013-09-16 01:43:00,
2013-09-15 21:48:00,67.8,62.8,30.14,SSW,209,0.0,0.0,84,0.00,CLR,,0.00,WeatherDisplay:10.37,2013-09-16 01:48:00,
2013-09-15 21:53:00,67.6,62.6,30.14,SSW,209,0.0,0.0,84,0.00,CLR,,0.00,WeatherDisplay:10.37,2013-09-16 01:53:00,
2013-09-15 21:58:00,67.4,62.7,30.14,SSW,209,0.0,0.0,85,0.00,CLR,,0.00,WeatherDisplay:10.37,2013-09-16 01:58:00,
2013-09-15 22:03:00,67.1,62.8,30.14,SSW,209,0.0,0.0,86,0.00,CLR,,0.00,WeatherDisplay:10.37,2013-09-16 02:03:00,
2013-09-15 22:08:00,66.8,62.5,30.14,SSW,209,0.0,0.0,86,0.00,CLR,,0.00,WeatherDisplay:10.37,2013-09-16 02:08:00,
2013-09-15 22:13:00,66.7,62.4,30.14,SSW,209,0.0,0.0,86,0.00,CLR,,0.00,WeatherDisplay:10.37,2013-09-16 02:13:00,
2013-09-15 22:18:00,66.5,62.5,30.14,SSW,209,0.0,0.0,87,0.00,CLR,,0.00,WeatherDisplay:10.37,2013-09-16 02:18:00,
2013-09-15 22:23:00,66.3,62.3,30.14,SSW,209,0.0,0.0,87,0.00,CLR,,0.00,WeatherDisplay:10.37,2013-09-16 02:23:00,
2013-09-15 22:28:00,66.1,62.1,30.14,SSW,209,0.0,0.0,87,0.00,CLR,,0.00,WeatherDisplay:10.37,2013-09-16 02:28:00,
2013-09-15 22:33:00,65.8,61.8,30.14,SSW,209,0.0,0.0,87,0.00,CLR,,0.00,WeatherDisplay:10.37,2013-09-16 02:33:00,
2013-09-15 22:38:00,65.6,61.6,30.15,SSW,209,0.0,0.0,87,0.00,CLR,,0.00,WeatherDisplay:10.37,2013-09-16 02:38:00,
2013-09-15 22:43:00,65.4,61.4,30.14,SSW,209,0.0,0.0,87,0.00,CLR,,0.00,WeatherDisplay:10.37,2013-09-16 02:43:00,
2013-09-15 22:48:00,65.3,61.7,30.14,SSW,209,0.0,0.0,88,0.00,CLR,,0.00,WeatherDisplay:10.37,2013-09-16 02:48:00,
2013-09-15 22:53:00,65.1,61.8,30.14,SSW,209,0.0,0.0,89,0.00,CLR,,0.00,WeatherDisplay:10.37,2013-09-16 02:53:00,
2013-09-15 22:58:00,65.0,62.0,30.14,SSW,209,0.0,0.0,90,0.00,CLR,,0.00,WeatherDisplay:10.37,2013-09-16 02:58:00,
2013-09-15 23:03:00,64.8,61.8,30.14,SSW,209,0.0,0.0,90,0.00,CLR,,0.00,WeatherDisplay:10.37,2013-09-16 03:03:00,
2013-09-15 23:08:00,64.7,61.7,30.14,SSW,209,0.0,0.0,90,0.00,CLR,,0.00,WeatherDisplay:10.37,2013-09-16 03:08:00,
2013-09-15 23:13:00,64.6,61.9,30.14,SSW,209,0.0,0.0,91,0.00,CLR,,0.00,WeatherDisplay:10.37,2013-09-16 03:13:00,
2013-09-15 23:18:00,64.5,61.8,30.14,SSW,209,0.0,0.0,91,0.00,CLR,,0.00,WeatherDisplay:10.37,2013-09-16 03:18:00,
2013-09-15 23:23:00,64.3,61.6,30.14,SSW,209,0.0,0.0,91,0.00,CLR,,0.00,WeatherDisplay:10.37,2013-09-16 03:23:00,
2013-09-15 23:28:00,64.2,61.5,30.14,SSW,209,0.0,0.0,91,0.00,CLR,,0.00,WeatherDisplay:10.37,2013-09-16 03:28:00,
2013-09-15 23:33:00,64.0,61.3,30.14,SSW,209,0.0,0.0,91,0.00,CLR,,0.00,WeatherDisplay:10.37,2013-09-16 03:33:00,
2013-09-15 23:38:00,63.9,61.2,30.14,SSW,209,0.0,0.0,91,0.00,CLR,,0.00,WeatherDisplay:10.37,2013-09-16 03:38:00,
2013-09-15 23:43:00,63.8,61.1,30.14,SSW,209,0.0,0.0,91,0.00,CLR,,0.00,WeatherDisplay:10.37,2013-09-16 03:43:00,
2013-09-15 23:48:00,63.7,61.0,30.14,SSW,209,0.0,0.0,91,0.00,CLR,,0.00,WeatherDisplay:10.37,2013-09-16 03:48:00,
2013-09-15 23:53:00,63.6,60.9,30.14,SSW,209,0.0,0.0,91,0.00,CLR,,0.00,WeatherDisplay:10.37,2013-09-16 03:53:00,
2013-09-15 23:59:00,63.4,60.7,30.14,SSW,209,0.0,0.0,91,0.00,CLR,,0.00,WeatherDisplay:10.37,2013-09-16 03:59:00,